createdAt,value
2018-03-02T00:01:33.024Z,139.47
2018-03-02T00:04:02.216Z,134.03
2018-03-02T00:06:31.354Z,139.37
2018-03-02T00:09:00.516Z,135.20
2018-03-02T00:11:29.676Z,121.23
2018-03-02T00:13:58.830Z,142.33
2018-03-02T00:16:28.014Z,140.93
2018-03-02T00:18:57.152Z,132.07
2018-03-02T00:21:26.290Z,137.27
2018-03-02T00:23:55.458Z,138.73
2018-03-02T00:26:24.646Z,146.37
2018-03-02T00:28:54.091Z,140.57
2018-03-02T00:31:23.230Z,140.23
2018-03-02T00:33:52.416Z,119.70
2018-03-02T00:36:21.619Z,150.40
2018-03-02T00:38:50.762Z,129.50
2018-03-02T00:41:19.934Z,140.30
2018-03-02T00:43:49.076Z,142.57
2018-03-02T00:46:18.212Z,137.20
2018-03-02T00:48:47.393Z,147.87
2018-03-02T00:51:16.527Z,147.23
2018-03-02T00:53:45.666Z,143.50
2018-03-02T00:56:14.846Z,145.27
2018-03-02T00:58:43.989Z,145.53
2018-03-02T01:01:13.188Z,157.70
2018-03-02T01:03:42.334Z,168.23
2018-03-02T01:06:11.477Z,189.30
2018-03-02T01:08:40.666Z,142.50
2018-03-02T01:11:09.814Z,176.00
2018-03-02T01:13:39.006Z,140.00
2018-03-02T01:16:08.143Z,137.47
2018-03-02T01:18:37.281Z,179.00
2018-03-02T01:21:06.495Z,130.70
2018-03-02T01:23:35.628Z,134.67
2018-03-02T01:26:04.786Z,165.43
2018-03-02T01:28:34.058Z,136.10
2018-03-02T01:31:03.205Z,144.43
2018-03-02T01:33:32.369Z,141.33
2018-03-02T01:36:01.550Z,147.83
2018-03-02T01:38:30.711Z,164.20
2018-03-02T01:40:59.861Z,133.00
2018-03-02T01:43:29.046Z,241.90
2018-03-02T01:45:58.196Z,156.50
2018-03-02T01:48:27.343Z,133.90
2018-03-02T01:50:56.519Z,268.60
2018-03-02T01:53:25.667Z,139.57
2018-03-02T01:55:54.797Z,134.20
2018-03-02T01:58:23.956Z,126.87
2018-03-02T02:00:53.092Z,124.53
2018-03-02T02:03:22.233Z,115.87
2018-03-02T02:05:51.407Z,141.07
2018-03-02T02:08:20.533Z,128.87
2018-03-02T02:10:49.689Z,120.70
2018-03-02T02:13:18.864Z,131.53
2018-03-02T02:15:48.002Z,133.27
2018-03-02T02:18:17.200Z,130.20
2018-03-02T02:20:46.370Z,125.50
2018-03-02T02:23:15.517Z,141.53
2018-03-02T02:25:44.657Z,142.00
2018-03-02T02:28:13.814Z,146.83
2018-03-02T02:30:42.967Z,135.20
2018-03-02T02:33:12.170Z,126.53
2018-03-02T02:35:41.374Z,132.67
2018-03-02T02:38:10.529Z,134.30
2018-03-02T02:40:39.671Z,135.93
2018-03-02T02:43:08.855Z,154.97
2018-03-02T02:45:37.997Z,124.77
2018-03-02T02:48:07.151Z,136.40
2018-03-02T02:50:36.314Z,163.43
2018-03-02T02:53:05.467Z,209.90
2018-03-02T02:55:34.615Z,123.43
2018-03-02T02:58:03.792Z,134.70
2018-03-02T03:00:32.978Z,147.80
2018-03-02T03:03:02.179Z,130.77
2018-03-02T03:05:31.341Z,139.70
2018-03-02T03:08:00.543Z,192.33
2018-03-02T03:10:29.681Z,138.57
2018-03-02T03:12:58.843Z,140.93
2018-03-02T03:15:28.073Z,133.67
2018-03-02T03:17:57.213Z,158.43
2018-03-02T03:20:26.361Z,127.33
2018-03-02T03:22:55.557Z,127.90
2018-03-02T03:25:24.767Z,140.57
2018-03-02T03:27:53.913Z,138.23
2018-03-02T03:30:23.100Z,131.47
2018-03-02T03:32:52.279Z,190.93
2018-03-02T03:35:21.492Z,141.13
2018-03-02T03:37:50.633Z,147.17
2018-03-02T03:40:19.841Z,133.07
2018-03-02T03:42:48.996Z,129.87
2018-03-02T03:45:18.138Z,143.57
2018-03-02T03:47:47.335Z,142.70
2018-03-02T03:50:16.486Z,152.60
2018-03-02T03:52:45.646Z,138.27
2018-03-02T03:55:14.823Z,136.50
2018-03-02T03:57:43.983Z,127.00
2018-03-02T04:00:13.131Z,132.13
2018-03-02T04:02:42.307Z,147.83
2018-03-02T04:05:11.455Z,123.73
2018-03-02T04:07:40.645Z,119.17
2018-03-02T04:10:09.838Z,146.43
2018-03-02T04:12:38.994Z,136.47
2018-03-02T04:15:08.177Z,137.83
2018-03-02T04:17:37.433Z,142.83
2018-03-02T04:20:06.609Z,132.10
2018-03-02T04:22:35.890Z,157.70
2018-03-02T04:25:05.029Z,145.90
2018-03-02T04:27:34.204Z,145.20
2018-03-02T04:30:03.382Z,126.37
2018-03-02T04:32:32.556Z,144.37
2018-03-02T04:35:01.693Z,127.43
2018-03-02T04:37:30.840Z,106.20
2018-03-02T04:40:00.048Z,140.90
2018-03-02T04:42:29.190Z,127.20
2018-03-02T04:44:58.375Z,135.50
2018-03-02T04:47:27.523Z,122.50
2018-03-02T04:49:56.674Z,150.43
2018-03-02T04:52:25.821Z,242.03
2018-03-02T04:54:54.957Z,138.90
2018-03-02T04:57:24.134Z,148.70
2018-03-02T04:59:53.331Z,165.13
2018-03-02T05:02:22.658Z,128.07
2018-03-02T05:04:51.823Z,134.03
2018-03-02T05:07:20.966Z,146.47
2018-03-02T05:09:50.117Z,136.17
2018-03-02T05:12:19.313Z,133.93
2018-03-02T05:14:48.496Z,144.90
2018-03-02T05:17:17.643Z,167.40
2018-03-02T05:19:46.778Z,145.30
2018-03-02T05:22:15.915Z,147.03
2018-03-02T05:24:45.084Z,133.47
2018-03-02T05:27:14.231Z,135.13
2018-03-02T05:29:43.397Z,140.00
2018-03-02T05:32:12.609Z,193.10
2018-03-02T05:34:41.793Z,154.37
2018-03-02T05:37:10.942Z,149.90
2018-03-02T05:39:40.089Z,127.30
2018-03-02T05:42:09.252Z,142.53
2018-03-02T05:44:38.396Z,150.17
2018-03-02T05:47:07.898Z,143.23
2018-03-02T05:49:37.090Z,212.47
2018-03-02T05:52:06.241Z,139.73
2018-03-02T05:54:35.533Z,135.83
2018-03-02T05:57:04.726Z,154.83
2018-03-02T05:59:33.861Z,137.70
2018-03-02T06:02:03.048Z,119.90
2018-03-02T06:04:32.414Z,137.13
2018-03-02T06:07:01.651Z,171.77
2018-03-02T06:09:30.789Z,156.83
2018-03-02T06:11:59.926Z,145.90
2018-03-02T06:14:29.096Z,180.43
2018-03-02T06:16:58.233Z,196.20
2018-03-02T06:19:27.381Z,150.27
2018-03-02T06:21:56.554Z,162.30
2018-03-02T06:24:25.704Z,200.37
2018-03-02T06:26:54.869Z,216.30
2018-03-02T06:29:24.039Z,140.90
2018-03-02T06:31:53.186Z,124.03
2018-03-02T06:34:22.357Z,142.67
2018-03-02T06:36:51.511Z,125.27
2018-03-02T06:39:20.693Z,130.30
2018-03-02T06:41:49.833Z,172.60
2018-03-02T06:44:18.996Z,303.50
2018-03-02T06:46:48.186Z,130.63
2018-03-02T06:49:17.338Z,127.93
2018-03-02T06:51:46.489Z,120.17
2018-03-02T06:54:15.669Z,133.57
2018-03-02T06:56:44.819Z,131.90
2018-03-02T06:59:13.970Z,183.90
2018-03-02T07:01:43.142Z,169.13
2018-03-02T07:04:12.304Z,128.83
2018-03-02T07:06:41.495Z,192.53
2018-03-02T07:09:10.648Z,126.47
2018-03-02T07:11:39.817Z,123.50
2018-03-02T07:14:08.982Z,121.80
2018-03-02T07:16:38.141Z,129.33
2018-03-02T07:19:07.318Z,158.83
2018-03-02T07:21:36.474Z,189.73
2018-03-02T07:24:05.625Z,131.87
2018-03-02T07:26:34.824Z,186.40
2018-03-02T07:29:04.012Z,140.23
2018-03-02T07:31:33.156Z,146.50
2018-03-02T07:34:02.301Z,162.97
2018-03-02T07:36:31.463Z,135.57
2018-03-02T07:39:00.609Z,147.53
2018-03-02T07:41:29.749Z,131.03
2018-03-02T07:43:58.926Z,132.23
2018-03-02T07:46:28.335Z,132.90
2018-03-02T07:48:57.469Z,145.87
2018-03-02T07:51:26.634Z,149.83
2018-03-02T07:53:55.817Z,141.87
2018-03-02T07:56:24.994Z,315.90
2018-03-02T07:58:54.141Z,136.27
2018-03-02T08:01:23.315Z,208.23
2018-03-02T08:03:52.531Z,203.57
2018-03-02T08:06:21.686Z,139.70
2018-03-02T08:08:50.849Z,134.90
2018-03-02T08:11:20.038Z,143.17
2018-03-02T08:13:49.183Z,171.70
2018-03-02T08:16:18.358Z,128.07
2018-03-02T08:18:47.533Z,136.47
2018-03-02T08:21:16.676Z,129.90
2018-03-02T08:23:45.858Z,127.23
2018-03-02T08:26:15.006Z,134.93
2018-03-02T08:28:44.149Z,145.90
2018-03-02T08:31:13.339Z,136.03
2018-03-02T08:33:42.488Z,152.73
2018-03-02T08:36:11.667Z,148.50
2018-03-02T08:38:40.814Z,171.37
2018-03-02T08:41:09.961Z,147.63
2018-03-02T08:43:39.140Z,148.20
2018-03-02T08:46:08.286Z,154.90
2018-03-02T08:48:37.427Z,150.27
2018-03-02T08:51:06.593Z,151.33
2018-03-02T08:53:35.729Z,167.37
2018-03-02T08:56:04.878Z,220.07
2018-03-02T08:58:34.046Z,138.97
2018-03-02T09:01:03.198Z,135.77
2018-03-02T09:03:32.366Z,146.30
2018-03-02T09:06:02.020Z,134.90
2018-03-02T09:08:31.206Z,162.67
2018-03-02T09:11:00.392Z,152.30
2018-03-02T09:13:29.581Z,134.80
2018-03-02T09:15:58.739Z,127.57
2018-03-02T09:18:27.908Z,131.73
2018-03-02T09:20:57.049Z,132.30
2018-03-02T09:23:26.197Z,128.40
2018-03-02T09:25:55.365Z,136.77
2018-03-02T09:28:24.523Z,125.60
2018-03-02T09:30:53.722Z,138.03
2018-03-02T09:33:22.946Z,248.90
2018-03-02T09:35:52.121Z,139.87
2018-03-02T09:38:21.281Z,136.80
2018-03-02T09:40:50.442Z,148.77
2018-03-02T09:43:19.626Z,150.97
2018-03-02T09:45:48.773Z,121.77
2018-03-02T09:48:17.989Z,138.00
2018-03-02T09:50:47.146Z,134.50
2018-03-02T09:53:16.293Z,135.70
2018-03-02T09:55:45.484Z,132.77
2018-03-02T09:58:14.642Z,149.27
2018-03-02T10:00:43.799Z,131.73
2018-03-02T10:03:12.974Z,141.40
2018-03-02T10:05:42.137Z,142.77
2018-03-02T10:08:11.304Z,121.13
2018-03-02T10:10:40.545Z,140.70
2018-03-02T10:13:09.681Z,144.93
2018-03-02T10:15:38.828Z,137.03
2018-03-02T10:18:08.007Z,137.47
2018-03-02T10:20:37.165Z,132.10
2018-03-02T10:23:06.302Z,129.07
2018-03-02T10:25:35.471Z,130.13
2018-03-02T10:28:04.634Z,137.33
2018-03-02T10:30:33.793Z,143.57
2018-03-02T10:33:02.966Z,137.77
2018-03-02T10:35:32.133Z,127.00
2018-03-02T10:38:01.289Z,131.27
2018-03-02T10:40:30.433Z,131.67
2018-03-02T10:42:59.599Z,135.53
2018-03-02T10:45:28.754Z,135.03
2018-03-02T10:47:57.913Z,144.83
2018-03-02T10:50:27.113Z,131.50
2018-03-02T10:52:56.253Z,142.33
2018-03-02T10:55:25.452Z,146.93
2018-03-02T10:57:54.599Z,136.93
2018-03-02T11:00:29.487Z,138.07
2018-03-02T11:02:58.698Z,146.40
2018-03-02T11:05:33.567Z,142.97
2018-03-02T11:08:02.724Z,135.07
2018-03-02T11:10:31.882Z,156.77
2018-03-02T11:13:01.078Z,146.97
2018-03-02T11:15:30.242Z,137.53
2018-03-02T11:17:59.419Z,141.67
2018-03-02T11:20:28.620Z,139.50
2018-03-02T11:22:58.147Z,134.00
2018-03-02T11:25:27.368Z,138.67
2018-03-02T11:27:56.513Z,138.70
2018-03-02T11:30:25.647Z,143.27
2018-03-02T11:32:54.824Z,135.70
2018-03-02T11:35:23.965Z,136.53
2018-03-02T11:37:53.142Z,141.20
2018-03-02T11:40:22.291Z,147.77
2018-03-02T11:42:51.466Z,139.03
2018-03-02T11:45:20.669Z,139.00
2018-03-02T11:47:49.822Z,134.40
2018-03-02T11:50:19.014Z,132.63
2018-03-02T11:52:48.203Z,138.70
2018-03-02T11:55:17.323Z,142.90
2018-03-02T11:57:46.503Z,144.57
2018-03-02T12:00:15.643Z,150.13
2018-03-02T12:02:44.804Z,145.87
2018-03-02T12:05:14.558Z,141.67
2018-03-02T12:07:43.706Z,143.03
2018-03-02T12:10:12.857Z,140.87
2018-03-02T12:12:42.018Z,137.70
2018-03-02T12:15:11.171Z,137.13
2018-03-02T12:17:40.317Z,153.97
2018-03-02T12:20:09.503Z,145.03
2018-03-02T12:22:38.760Z,147.37
2018-03-02T12:25:07.845Z,138.77
2018-03-02T12:27:37.015Z,145.50
2018-03-02T12:30:06.155Z,151.60
2018-03-02T12:32:35.297Z,139.17
2018-03-02T12:35:04.490Z,139.37
2018-03-02T12:37:33.633Z,144.27
2018-03-02T12:40:02.818Z,145.33
2018-03-02T12:42:32.282Z,158.63
2018-03-02T12:45:01.438Z,147.87
2018-03-02T12:47:30.644Z,145.53
2018-03-02T12:49:59.802Z,143.57
2018-03-02T12:52:28.956Z,144.20
2018-03-02T12:54:58.094Z,142.20
2018-03-02T12:57:27.255Z,154.67
2018-03-02T12:59:56.462Z,145.13
2018-03-02T13:02:25.647Z,148.57
2018-03-02T13:04:54.786Z,143.20
2018-03-02T13:07:24.469Z,144.07
2018-03-02T13:09:53.641Z,141.57
2018-03-02T13:12:22.783Z,149.20
2018-03-02T13:14:51.942Z,137.90
2018-03-02T13:17:21.128Z,146.20
2018-03-02T13:19:50.288Z,144.97
2018-03-02T13:22:25.299Z,143.70
2018-03-02T13:24:54.467Z,147.23
2018-03-02T13:27:29.401Z,149.77
2018-03-02T13:29:58.549Z,142.50
2018-03-02T13:32:27.707Z,148.23
2018-03-02T13:35:02.849Z,141.47
2018-03-02T13:37:32.007Z,144.83
2018-03-02T13:40:07.157Z,151.70
2018-03-02T13:42:36.297Z,148.87
2018-03-02T13:45:05.456Z,143.97
2018-03-02T13:50:30.011Z,145.97
2018-03-02T13:52:59.193Z,145.03
2018-03-02T13:55:28.346Z,142.57
2018-03-02T13:58:02.445Z,146.60
2018-03-02T14:00:31.593Z,149.20
2018-03-02T14:03:06.562Z,139.47
2018-03-02T14:05:35.741Z,147.73
2018-03-02T14:08:04.948Z,147.10
2018-03-02T14:10:34.129Z,148.97
2018-03-02T14:13:03.277Z,143.43
2018-03-02T14:15:32.417Z,143.40
2018-03-02T14:18:01.591Z,146.50
2018-03-02T14:20:30.738Z,142.97
2018-03-02T14:23:00.357Z,140.80
2018-03-02T14:25:29.504Z,143.97
2018-03-02T14:27:58.648Z,145.17
2018-03-02T14:30:27.826Z,142.57
2018-03-02T14:32:57.000Z,143.27
2018-03-02T14:35:26.167Z,143.33
2018-03-02T14:37:55.337Z,146.17
2018-03-02T14:40:24.501Z,142.60
2018-03-02T14:42:53.650Z,140.93
2018-03-02T14:45:22.814Z,147.97
2018-03-02T14:47:51.951Z,144.00
2018-03-02T14:50:21.110Z,144.37
2018-03-02T14:52:50.295Z,146.87
2018-03-02T14:55:19.451Z,145.57
2018-03-02T14:57:48.625Z,143.50
2018-03-02T15:00:17.762Z,144.57
2018-03-02T15:02:46.946Z,140.83
2018-03-02T15:05:16.102Z,143.80
2018-03-02T15:07:45.306Z,145.27
2018-03-02T15:10:14.481Z,151.27
2018-03-02T15:12:43.676Z,147.53
2018-03-02T15:15:12.832Z,146.07
2018-03-02T15:17:42.009Z,145.27
2018-03-02T15:20:11.162Z,156.27
2018-03-02T15:22:40.299Z,145.30
2018-03-02T15:25:09.460Z,155.67
2018-03-02T15:27:38.636Z,151.20
2018-03-02T15:30:07.786Z,154.23
2018-03-02T15:32:36.986Z,158.37
2018-03-02T15:35:06.170Z,156.00
2018-03-02T15:37:35.329Z,158.20
2018-03-02T15:40:04.512Z,146.27
2018-03-02T15:42:33.706Z,154.97
2018-03-02T15:45:02.854Z,147.60
2018-03-02T15:47:32.038Z,152.40
2018-03-02T15:50:01.200Z,153.37
2018-03-02T15:52:30.350Z,150.00
2018-03-02T15:54:59.523Z,146.30
2018-03-02T15:57:28.675Z,142.90
2018-03-02T15:59:57.820Z,163.37
2018-03-02T16:05:16.284Z,147.63
2018-03-02T16:07:45.532Z,149.53
2018-03-02T16:10:14.679Z,150.87
2018-03-02T16:12:43.900Z,150.30
2018-03-02T16:15:13.086Z,172.03
2018-03-02T16:17:42.232Z,151.80
2018-03-02T16:20:11.382Z,153.60
2018-03-02T16:22:40.582Z,154.80
2018-03-02T16:25:09.730Z,157.53
2018-03-02T16:27:38.944Z,166.13
2018-03-02T16:30:08.105Z,163.13
2018-03-02T16:32:37.311Z,168.70
2018-03-02T16:35:06.494Z,165.67
2018-03-02T16:37:35.646Z,161.97
2018-03-02T16:40:04.821Z,163.27
2018-03-02T16:42:34.479Z,160.43
2018-03-02T16:45:03.703Z,171.90
2018-03-02T16:47:32.853Z,164.03
2018-03-02T16:50:02.068Z,172.10
2018-03-02T16:52:31.255Z,165.63
2018-03-02T16:55:00.394Z,153.20
2018-03-02T16:57:29.550Z,165.80
2018-03-02T16:59:58.723Z,171.17
2018-03-02T17:02:27.862Z,162.73
2018-03-02T17:04:57.006Z,160.27
2018-03-02T17:07:26.173Z,172.03
2018-03-02T17:09:55.325Z,174.73
2018-03-02T17:12:24.465Z,162.93
2018-03-02T17:14:53.626Z,172.93
2018-03-02T17:17:22.786Z,171.40
2018-03-02T17:19:51.941Z,167.70
2018-03-02T17:22:21.132Z,185.43
2018-03-02T17:24:50.275Z,176.33
2018-03-02T17:27:19.457Z,167.00
2018-03-02T17:29:48.650Z,181.57
2018-03-02T17:32:17.812Z,182.00
2018-03-02T17:34:46.964Z,191.90
2018-03-02T17:37:16.130Z,188.90
2018-03-02T17:39:45.287Z,181.60
2018-03-02T17:42:14.435Z,161.77
2018-03-02T17:44:44.715Z,174.97
2018-03-02T17:47:13.890Z,165.57
2018-03-02T17:49:43.031Z,182.37
2018-03-02T17:52:12.225Z,185.43
2018-03-02T17:54:41.389Z,175.93
2018-03-02T17:57:10.550Z,191.53
2018-03-02T17:59:40.058Z,190.00
2018-03-02T18:02:09.258Z,183.07
2018-03-02T18:04:38.398Z,184.70
2018-03-02T18:07:07.541Z,193.33
2018-03-02T18:09:36.716Z,194.37
2018-03-02T18:12:05.856Z,178.87
2018-03-02T18:14:34.997Z,177.80
2018-03-02T18:17:04.213Z,186.60
2018-03-02T18:19:33.364Z,182.77
2018-03-02T18:22:02.523Z,174.63
2018-03-02T18:24:31.702Z,187.57
2018-03-02T18:27:00.838Z,192.00
2018-03-02T18:29:29.984Z,185.30
2018-03-02T18:31:59.150Z,192.83
2018-03-02T18:34:28.338Z,197.67
2018-03-02T18:36:57.481Z,187.67
2018-03-02T18:39:26.640Z,202.97
2018-03-02T18:41:55.781Z,211.93
2018-03-02T18:44:24.999Z,198.00
2018-03-02T18:46:54.131Z,199.40
2018-03-02T18:49:23.289Z,192.93
2018-03-02T18:51:52.474Z,211.67
2018-03-02T18:54:21.618Z,202.57
2018-03-02T18:56:50.753Z,207.23
2018-03-02T18:59:19.941Z,198.30
2018-03-02T19:01:49.093Z,212.07
2018-03-02T19:04:18.269Z,208.93
2018-03-02T19:06:47.417Z,197.93
2018-03-02T19:09:16.572Z,214.67
2018-03-02T19:11:45.737Z,201.80
2018-03-02T19:14:14.893Z,213.57
2018-03-02T19:16:44.041Z,220.47
2018-03-02T19:19:13.233Z,214.37
2018-03-02T19:21:42.371Z,225.67
2018-03-02T19:24:11.518Z,207.80
2018-03-02T19:26:40.689Z,205.53
2018-03-02T19:29:09.846Z,218.90
2018-03-02T19:31:39.104Z,225.47
2018-03-02T19:34:08.358Z,220.57
2018-03-02T19:36:37.548Z,205.57
2018-03-02T19:39:06.865Z,219.37
2018-03-02T19:41:36.162Z,220.30
2018-03-02T19:44:05.333Z,215.50
2018-03-02T19:46:34.724Z,221.50
2018-03-02T19:49:03.911Z,228.30
2018-03-02T19:51:33.093Z,217.03
2018-03-02T19:54:02.461Z,228.93
2018-03-02T19:56:31.910Z,241.73
2018-03-02T19:59:01.144Z,226.90
2018-03-02T20:01:30.282Z,221.93
2018-03-02T20:03:59.426Z,228.77
2018-03-02T20:06:28.599Z,240.63
2018-03-02T20:08:58.032Z,215.77
2018-03-02T20:11:27.265Z,227.53
2018-03-02T20:13:56.406Z,220.77
2018-03-02T20:16:25.804Z,213.30
2018-03-02T20:18:55.327Z,232.10
2018-03-02T20:21:24.738Z,222.87
2018-03-02T20:23:54.163Z,217.43
2018-03-02T20:26:23.409Z,195.67
2018-03-02T20:28:52.826Z,216.70
2018-03-02T20:31:22.017Z,231.60
2018-03-02T20:33:51.454Z,211.67
2018-03-02T20:36:20.917Z,233.37
2018-03-02T20:38:50.163Z,216.63
2018-03-02T20:41:19.412Z,219.30
2018-03-02T20:43:48.580Z,219.40
2018-03-02T20:46:17.735Z,201.53
2018-03-02T20:48:46.938Z,221.90
2018-03-02T20:51:16.075Z,229.17
2018-03-02T20:53:45.228Z,212.43
2018-03-02T20:56:14.414Z,195.63
2018-03-02T20:58:43.596Z,224.20
2018-03-02T21:01:12.784Z,229.33
2018-03-02T21:03:41.997Z,228.87
2018-03-02T21:06:11.190Z,222.23
2018-03-02T21:08:40.356Z,207.40
2018-03-02T21:11:09.548Z,199.33
2018-03-02T21:13:38.699Z,197.57
2018-03-02T21:16:07.874Z,230.13
2018-03-02T21:18:37.049Z,215.93
2018-03-02T21:21:06.246Z,208.87
2018-03-02T21:23:35.384Z,223.13
2018-03-02T21:26:04.590Z,220.70
2018-03-02T21:28:33.725Z,200.83
2018-03-02T21:31:02.878Z,213.33
2018-03-02T21:33:32.561Z,213.63
2018-03-02T21:36:01.201Z,226.57
2018-03-02T21:38:30.391Z,227.53
2018-03-02T21:40:59.565Z,233.90
2018-03-02T21:43:28.747Z,198.90
2018-03-02T21:45:57.902Z,231.87
2018-03-02T21:48:27.068Z,203.80
2018-03-02T21:50:56.224Z,194.43
2018-03-02T21:53:25.478Z,217.97
2018-03-02T21:55:54.618Z,214.20
2018-03-02T21:58:23.757Z,205.07
2018-03-02T22:00:52.946Z,224.37
2018-03-02T22:03:22.108Z,238.17
2018-03-02T22:05:51.267Z,227.80
2018-03-02T22:08:20.442Z,205.40
2018-03-02T22:10:49.589Z,213.17
2018-03-02T22:13:18.723Z,222.70
2018-03-02T22:15:47.882Z,231.60
2018-03-02T22:18:17.069Z,215.00
2018-03-02T22:20:46.218Z,240.53
2018-03-02T22:23:15.367Z,213.60
2018-03-02T22:25:44.584Z,225.23
2018-03-02T22:28:13.728Z,223.97
2018-03-02T22:30:42.881Z,225.43
2018-03-02T22:33:12.056Z,220.77
2018-03-02T22:35:41.341Z,241.23
2018-03-02T22:38:10.484Z,217.63
2018-03-02T22:40:39.634Z,225.23
2018-03-02T22:43:08.808Z,224.87
2018-03-02T22:45:37.961Z,221.70
2018-03-02T22:48:07.136Z,226.83
2018-03-02T22:50:36.278Z,243.00
2018-03-02T22:53:05.428Z,225.17
2018-03-02T22:55:34.643Z,235.67
2018-03-02T22:58:03.786Z,223.30
2018-03-02T23:00:32.980Z,231.40
2018-03-02T23:03:02.121Z,249.33
2018-03-02T23:05:31.256Z,240.20
2018-03-02T23:08:00.398Z,226.30
2018-03-02T23:10:29.565Z,230.93
2018-03-02T23:12:58.711Z,222.23
2018-03-02T23:15:27.846Z,226.07
2018-03-02T23:17:57.031Z,229.33
2018-03-02T23:20:26.182Z,219.47
2018-03-02T23:22:55.783Z,219.67
2018-03-02T23:25:25.010Z,223.57
2018-03-02T23:27:54.152Z,229.67
2018-03-02T23:30:23.312Z,225.97
2018-03-02T23:32:52.522Z,221.67
2018-03-02T23:35:21.667Z,219.37
2018-03-02T23:37:50.814Z,235.33
2018-03-02T23:40:20.020Z,219.07
2018-03-02T23:42:49.156Z,224.83
2018-03-02T23:45:18.293Z,219.77
2018-03-02T23:47:47.539Z,222.47
2018-03-02T23:50:16.706Z,235.07
2018-03-02T23:52:45.849Z,246.43
2018-03-02T23:55:15.019Z,234.93
2018-03-02T23:57:44.226Z,239.10
